sensor_id;sensor_type;location;lat;lon;timestamp;temperature;humidity
32139;DHT22;18644;48.700;9.210;2023-09-19T00:00:25;20.00;59.40
32139;DHT22;18644;48.700;9.210;2023-09-19T00:02:53;20.00;59.50
32139;DHT22;18644;48.700;9.210;2023-09-19T00:05:21;20.00;59.40
32139;DHT22;18644;48.700;9.210;2023-09-19T00:07:49;20.00;59.50
32139;DHT22;18644;48.700;9.210;2023-09-19T00:10:17;20.00;59.50
32139;DHT22;18644;48.700;9.210;2023-09-19T00:12:44;20.00;59.60
32139;DHT22;18644;48.700;9.210;2023-09-19T00:15:11;20.00;59.60
32139;DHT22;18644;48.700;9.210;2023-09-19T00:17:38;20.00;59.50
32139;DHT22;18644;48.700;9.210;2023-09-19T00:20:06;19.90;59.60
32139;DHT22;18644;48.700;9.210;2023-09-19T00:22:40;19.90;59.60
32139;DHT22;18644;48.700;9.210;2023-09-19T00:25:08;19.90;59.60
32139;DHT22;18644;48.700;9.210;2023-09-19T00:27:37;19.90;59.70
32139;DHT22;18644;48.700;9.210;2023-09-19T00:30:07;19.90;59.70
32139;DHT22;18644;48.700;9.210;2023-09-19T00:32:39;19.90;59.90
32139;DHT22;18644;48.700;9.210;2023-09-19T00:35:07;19.90;59.90
32139;DHT22;18644;48.700;9.210;2023-09-19T00:37:34;19.90;59.90
32139;DHT22;18644;48.700;9.210;2023-09-19T00:40:03;19.90;59.90
32139;DHT22;18644;48.700;9.210;2023-09-19T00:42:31;19.90;60.00
32139;DHT22;18644;48.700;9.210;2023-09-19T00:44:59;19.90;60.00
32139;DHT22;18644;48.700;9.210;2023-09-19T00:47:28;19.90;60.00
32139;DHT22;18644;48.700;9.210;2023-09-19T00:49:55;19.90;60.10
32139;DHT22;18644;48.700;9.210;2023-09-19T00:52:23;19.90;60.10
32139;DHT22;18644;48.700;9.210;2023-09-19T00:54:50;19.90;60.20
32139;DHT22;18644;48.700;9.210;2023-09-19T00:57:18;19.90;60.10
32139;DHT22;18644;48.700;9.210;2023-09-19T00:59:48;19.90;60.00
32139;DHT22;18644;48.700;9.210;2023-09-19T01:02:16;20.00;60.00
32139;DHT22;18644;48.700;9.210;2023-09-19T01:04:43;20.00;59.90
32139;DHT22;18644;48.700;9.210;2023-09-19T01:07:11;20.00;59.90
32139;DHT22;18644;48.700;9.210;2023-09-19T01:09:40;20.00;60.00
32139;DHT22;18644;48.700;9.210;2023-09-19T01:12:07;20.00;60.00
32139;DHT22;18644;48.700;9.210;2023-09-19T01:14:38;20.00;60.00
32139;DHT22;18644;48.700;9.210;2023-09-19T01:17:09;20.00;60.00
32139;DHT22;18644;48.700;9.210;2023-09-19T01:19:56;20.00;59.90
32139;DHT22;18644;48.700;9.210;2023-09-19T01:22:42;20.00;59.90
32139;DHT22;18644;48.700;9.210;2023-09-19T01:28:29;20.00;59.90
32139;DHT22;18644;48.700;9.210;2023-09-19T01:31:04;20.00;60.00
32139;DHT22;18644;48.700;9.210;2023-09-19T01:36:22;20.00;60.00
32139;DHT22;18644;48.700;9.210;2023-09-19T01:38:49;20.00;60.00
32139;DHT22;18644;48.700;9.210;2023-09-19T01:41:17;20.00;60.00
32139;DHT22;18644;48.700;9.210;2023-09-19T01:43:49;20.00;60.00
32139;DHT22;18644;48.700;9.210;2023-09-19T01:46:19;20.00;60.00
32139;DHT22;18644;48.700;9.210;2023-09-19T01:48:49;20.00;59.90
32139;DHT22;18644;48.700;9.210;2023-09-19T01:51:25;20.00;59.90
32139;DHT22;18644;48.700;9.210;2023-09-19T01:53:59;20.00;59.90
32139;DHT22;18644;48.700;9.210;2023-09-19T01:56:29;20.00;60.00
32139;DHT22;18644;48.700;9.210;2023-09-19T01:58:59;20.00;60.00
32139;DHT22;18644;48.700;9.210;2023-09-19T02:01:30;20.00;59.90
32139;DHT22;18644;48.700;9.210;2023-09-19T02:03:57;20.10;59.90
32139;DHT22;18644;48.700;9.210;2023-09-19T02:06:24;20.00;59.80
32139;DHT22;18644;48.700;9.210;2023-09-19T02:08:53;20.00;59.80
32139;DHT22;18644;48.700;9.210;2023-09-19T02:11:20;20.10;59.90
32139;DHT22;18644;48.700;9.210;2023-09-19T02:13:47;20.00;59.80
32139;DHT22;18644;48.700;9.210;2023-09-19T02:16:16;20.00;59.80
32139;DHT22;18644;48.700;9.210;2023-09-19T02:18:47;20.00;59.80
32139;DHT22;18644;48.700;9.210;2023-09-19T02:21:14;20.10;59.80
32139;DHT22;18644;48.700;9.210;2023-09-19T02:23:41;20.10;59.90
32139;DHT22;18644;48.700;9.210;2023-09-19T02:26:07;20.00;59.90
32139;DHT22;18644;48.700;9.210;2023-09-19T02:28:34;20.00;59.80
32139;DHT22;18644;48.700;9.210;2023-09-19T02:31:01;20.00;59.80
32139;DHT22;18644;48.700;9.210;2023-09-19T02:33:30;20.00;59.80
32139;DHT22;18644;48.700;9.210;2023-09-19T02:35:59;20.00;59.80
32139;DHT22;18644;48.700;9.210;2023-09-19T02:38:29;20.00;59.80
32139;DHT22;18644;48.700;9.210;2023-09-19T02:40:56;20.00;59.80
32139;DHT22;18644;48.700;9.210;2023-09-19T02:43:22;19.90;59.80
32139;DHT22;18644;48.700;9.210;2023-09-19T02:45:50;19.90;59.80
32139;DHT22;18644;48.700;9.210;2023-09-19T02:48:18;19.90;59.80
32139;DHT22;18644;48.700;9.210;2023-09-19T02:50:45;19.90;59.80
32139;DHT22;18644;48.700;9.210;2023-09-19T02:53:13;19.80;59.70
32139;DHT22;18644;48.700;9.210;2023-09-19T02:55:40;19.90;59.80
32139;DHT22;18644;48.700;9.210;2023-09-19T02:58:08;19.80;59.80
32139;DHT22;18644;48.700;9.210;2023-09-19T03:00:36;19.80;59.80
32139;DHT22;18644;48.700;9.210;2023-09-19T03:03:03;19.80;59.80
32139;DHT22;18644;48.700;9.210;2023-09-19T03:05:31;19.70;59.70
32139;DHT22;18644;48.700;9.210;2023-09-19T03:07:58;19.80;59.80
32139;DHT22;18644;48.700;9.210;2023-09-19T03:10:27;19.70;59.80
32139;DHT22;18644;48.700;9.210;2023-09-19T03:12:55;19.70;60.00
32139;DHT22;18644;48.700;9.210;2023-09-19T03:15:22;19.70;60.00
32139;DHT22;18644;48.700;9.210;2023-09-19T03:17:48;19.70;60.20
32139;DHT22;18644;48.700;9.210;2023-09-19T03:20:17;19.70;60.20
32139;DHT22;18644;48.700;9.210;2023-09-19T03:22:44;19.70;61.10
32139;DHT22;18644;48.700;9.210;2023-09-19T03:25:11;19.70;60.40
32139;DHT22;18644;48.700;9.210;2023-09-19T03:27:41;19.70;60.40
32139;DHT22;18644;48.700;9.210;2023-09-19T03:30:08;19.70;60.40
32139;DHT22;18644;48.700;9.210;2023-09-19T03:32:36;19.70;60.50
32139;DHT22;18644;48.700;9.210;2023-09-19T03:35:03;19.70;60.50
32139;DHT22;18644;48.700;9.210;2023-09-19T03:37:31;19.70;60.50
32139;DHT22;18644;48.700;9.210;2023-09-19T03:39:58;19.80;60.60
32139;DHT22;18644;48.700;9.210;2023-09-19T03:42:30;19.80;61.30
32139;DHT22;18644;48.700;9.210;2023-09-19T03:44:58;19.70;60.40
32139;DHT22;18644;48.700;9.210;2023-09-19T03:47:26;19.70;60.50
32139;DHT22;18644;48.700;9.210;2023-09-19T03:49:52;19.70;60.50
32139;DHT22;18644;48.700;9.210;2023-09-19T03:52:19;19.70;60.40
32139;DHT22;18644;48.700;9.210;2023-09-19T03:54:46;19.70;60.40
32139;DHT22;18644;48.700;9.210;2023-09-19T03:57:13;19.70;60.30
32139;DHT22;18644;48.700;9.210;2023-09-19T03:59:41;19.70;60.20
32139;DHT22;18644;48.700;9.210;2023-09-19T04:02:09;19.70;60.20
32139;DHT22;18644;48.700;9.210;2023-09-19T04:04:47;19.70;60.30
32139;DHT22;18644;48.700;9.210;2023-09-19T04:07:14;19.70;60.40
32139;DHT22;18644;48.700;9.210;2023-09-19T04:09:40;19.70;60.60
32139;DHT22;18644;48.700;9.210;2023-09-19T04:12:07;19.70;60.60
32139;DHT22;18644;48.700;9.210;2023-09-19T04:14:34;19.70;60.50
32139;DHT22;18644;48.700;9.210;2023-09-19T04:17:01;19.70;60.70
32139;DHT22;18644;48.700;9.210;2023-09-19T04:19:29;19.60;61.40
32139;DHT22;18644;48.700;9.210;2023-09-19T04:21:56;19.60;60.60
32139;DHT22;18644;48.700;9.210;2023-09-19T04:24:23;19.60;60.50
32139;DHT22;18644;48.700;9.210;2023-09-19T04:26:50;19.60;60.50
32139;DHT22;18644;48.700;9.210;2023-09-19T04:29:17;19.50;61.40
32139;DHT22;18644;48.700;9.210;2023-09-19T04:31:45;19.50;60.70
32139;DHT22;18644;48.700;9.210;2023-09-19T04:34:12;19.50;60.70
32139;DHT22;18644;48.700;9.210;2023-09-19T04:36:42;19.50;60.80
32139;DHT22;18644;48.700;9.210;2023-09-19T04:39:09;19.50;60.90
32139;DHT22;18644;48.700;9.210;2023-09-19T04:41:38;19.40;61.00
32139;DHT22;18644;48.700;9.210;2023-09-19T04:44:06;19.40;61.10
32139;DHT22;18644;48.700;9.210;2023-09-19T04:46:33;19.40;61.10
32139;DHT22;18644;48.700;9.210;2023-09-19T04:49:00;19.40;61.20
32139;DHT22;18644;48.700;9.210;2023-09-19T04:51:27;19.40;61.30
32139;DHT22;18644;48.700;9.210;2023-09-19T04:53:56;19.40;61.30
32139;DHT22;18644;48.700;9.210;2023-09-19T04:56:23;19.40;61.40
32139;DHT22;18644;48.700;9.210;2023-09-19T04:58:50;19.40;61.30
32139;DHT22;18644;48.700;9.210;2023-09-19T05:01:16;19.50;61.50
32139;DHT22;18644;48.700;9.210;2023-09-19T05:03:43;19.50;61.60
32139;DHT22;18644;48.700;9.210;2023-09-19T05:06:11;19.50;61.70
32139;DHT22;18644;48.700;9.210;2023-09-19T05:08:37;19.50;61.80
32139;DHT22;18644;48.700;9.210;2023-09-19T05:11:06;19.50;61.70
32139;DHT22;18644;48.700;9.210;2023-09-19T05:13:34;19.50;61.70
32139;DHT22;18644;48.700;9.210;2023-09-19T05:16:01;19.60;61.70
32139;DHT22;18644;48.700;9.210;2023-09-19T05:18:28;19.60;61.80
32139;DHT22;18644;48.700;9.210;2023-09-19T05:20:55;19.50;61.80
32139;DHT22;18644;48.700;9.210;2023-09-19T05:23:21;19.60;61.90
32139;DHT22;18644;48.700;9.210;2023-09-19T05:25:48;19.60;61.80
32139;DHT22;18644;48.700;9.210;2023-09-19T05:28:16;19.60;61.90
32139;DHT22;18644;48.700;9.210;2023-09-19T05:30:44;19.60;61.80
32139;DHT22;18644;48.700;9.210;2023-09-19T05:33:11;19.60;61.80
32139;DHT22;18644;48.700;9.210;2023-09-19T05:35:41;19.60;61.90
32139;DHT22;18644;48.700;9.210;2023-09-19T05:38:08;19.60;61.90
32139;DHT22;18644;48.700;9.210;2023-09-19T05:40:37;19.60;61.90
32139;DHT22;18644;48.700;9.210;2023-09-19T05:43:07;19.60;61.90
32139;DHT22;18644;48.700;9.210;2023-09-19T05:45:36;19.60;62.10
32139;DHT22;18644;48.700;9.210;2023-09-19T05:48:07;19.60;62.00
32139;DHT22;18644;48.700;9.210;2023-09-19T05:50:34;19.60;62.00
32139;DHT22;18644;48.700;9.210;2023-09-19T05:53:01;19.60;62.20
32139;DHT22;18644;48.700;9.210;2023-09-19T05:55:29;19.70;62.30
32139;DHT22;18644;48.700;9.210;2023-09-19T05:57:56;19.70;62.30
32139;DHT22;18644;48.700;9.210;2023-09-19T06:00:23;19.70;62.40
32139;DHT22;18644;48.700;9.210;2023-09-19T06:02:54;19.70;62.40
32139;DHT22;18644;48.700;9.210;2023-09-19T06:05:22;19.80;62.50
32139;DHT22;18644;48.700;9.210;2023-09-19T06:07:49;19.80;62.50
32139;DHT22;18644;48.700;9.210;2023-09-19T06:10:17;19.80;62.30
32139;DHT22;18644;48.700;9.210;2023-09-19T06:12:46;19.80;62.40
32139;DHT22;18644;48.700;9.210;2023-09-19T06:15:13;19.90;62.40
32139;DHT22;18644;48.700;9.210;2023-09-19T06:17:42;19.90;62.50
32139;DHT22;18644;48.700;9.210;2023-09-19T06:20:10;19.90;62.40
32139;DHT22;18644;48.700;9.210;2023-09-19T06:22:40;19.90;62.20
32139;DHT22;18644;48.700;9.210;2023-09-19T06:25:08;19.80;62.00
32139;DHT22;18644;48.700;9.210;2023-09-19T06:27:36;19.80;62.00
32139;DHT22;18644;48.700;9.210;2023-09-19T06:30:05;19.80;62.00
32139;DHT22;18644;48.700;9.210;2023-09-19T06:32:33;19.70;61.90
32139;DHT22;18644;48.700;9.210;2023-09-19T06:35:00;19.70;61.90
32139;DHT22;18644;48.700;9.210;2023-09-19T06:37:29;19.70;61.90
32139;DHT22;18644;48.700;9.210;2023-09-19T06:39:56;19.70;62.10
32139;DHT22;18644;48.700;9.210;2023-09-19T06:42:23;19.70;62.10
32139;DHT22;18644;48.700;9.210;2023-09-19T06:44:50;19.60;62.20
32139;DHT22;18644;48.700;9.210;2023-09-19T06:47:18;19.60;62.30
32139;DHT22;18644;48.700;9.210;2023-09-19T06:49:45;19.60;62.40
32139;DHT22;18644;48.700;9.210;2023-09-19T06:52:13;19.60;62.40
32139;DHT22;18644;48.700;9.210;2023-09-19T06:54:41;19.60;62.50
32139;DHT22;18644;48.700;9.210;2023-09-19T06:57:08;19.70;62.60
32139;DHT22;18644;48.700;9.210;2023-09-19T06:59:35;19.70;62.90
32139;DHT22;18644;48.700;9.210;2023-09-19T07:02:02;19.70;62.90
32139;DHT22;18644;48.700;9.210;2023-09-19T07:04:31;19.80;62.90
32139;DHT22;18644;48.700;9.210;2023-09-19T07:06:58;19.80;62.90
32139;DHT22;18644;48.700;9.210;2023-09-19T07:09:25;19.90;63.00
32139;DHT22;18644;48.700;9.210;2023-09-19T07:11:54;20.00;63.00
32139;DHT22;18644;48.700;9.210;2023-09-19T07:14:21;20.00;63.00
32139;DHT22;18644;48.700;9.210;2023-09-19T07:16:48;20.10;63.10
32139;DHT22;18644;48.700;9.210;2023-09-19T07:19:15;20.10;63.10
32139;DHT22;18644;48.700;9.210;2023-09-19T07:21:42;20.20;63.00
32139;DHT22;18644;48.700;9.210;2023-09-19T07:24:09;20.30;62.80
32139;DHT22;18644;48.700;9.210;2023-09-19T07:26:36;20.30;62.60
32139;DHT22;18644;48.700;9.210;2023-09-19T07:29:04;20.30;62.50
32139;DHT22;18644;48.700;9.210;2023-09-19T07:31:34;20.40;62.80
32139;DHT22;18644;48.700;9.210;2023-09-19T07:34:00;20.40;62.80
32139;DHT22;18644;48.700;9.210;2023-09-19T07:36:29;20.50;62.80
32139;DHT22;18644;48.700;9.210;2023-09-19T07:38:56;20.60;63.80
32139;DHT22;18644;48.700;9.210;2023-09-19T07:41:23;20.60;63.20
32139;DHT22;18644;48.700;9.210;2023-09-19T07:43:50;20.70;63.40
32139;DHT22;18644;48.700;9.210;2023-09-19T07:46:19;20.80;63.30
32139;DHT22;18644;48.700;9.210;2023-09-19T07:48:46;20.80;63.00
32139;DHT22;18644;48.700;9.210;2023-09-19T07:51:14;20.90;63.00
32139;DHT22;18644;48.700;9.210;2023-09-19T07:53:41;21.00;63.00
32139;DHT22;18644;48.700;9.210;2023-09-19T07:56:08;21.10;63.00
32139;DHT22;18644;48.700;9.210;2023-09-19T07:58:38;21.10;62.80
32139;DHT22;18644;48.700;9.210;2023-09-19T08:01:06;21.20;62.60
32139;DHT22;18644;48.700;9.210;2023-09-19T08:03:35;21.30;62.40
32139;DHT22;18644;48.700;9.210;2023-09-19T08:06:05;21.30;62.20
32139;DHT22;18644;48.700;9.210;2023-09-19T08:08:32;21.30;62.10
32139;DHT22;18644;48.700;9.210;2023-09-19T08:11:02;21.30;62.00
32139;DHT22;18644;48.700;9.210;2023-09-19T08:13:35;21.40;62.40
32139;DHT22;18644;48.700;9.210;2023-09-19T08:16:03;21.50;62.60
32139;DHT22;18644;48.700;9.210;2023-09-19T08:18:30;21.50;62.70
32139;DHT22;18644;48.700;9.210;2023-09-19T08:20:58;21.60;63.00
32139;DHT22;18644;48.700;9.210;2023-09-19T08:23:25;21.70;63.00
32139;DHT22;18644;48.700;9.210;2023-09-19T08:25:55;21.80;62.60
32139;DHT22;18644;48.700;9.210;2023-09-19T08:28:22;21.90;62.30
32139;DHT22;18644;48.700;9.210;2023-09-19T08:30:49;22.00;62.20
32139;DHT22;18644;48.700;9.210;2023-09-19T08:33:16;22.10;62.00
32139;DHT22;18644;48.700;9.210;2023-09-19T08:35:43;22.10;61.60
32139;DHT22;18644;48.700;9.210;2023-09-19T08:38:12;22.20;61.40
32139;DHT22;18644;48.700;9.210;2023-09-19T08:40:39;22.20;61.00
32139;DHT22;18644;48.700;9.210;2023-09-19T08:43:07;22.20;60.70
32139;DHT22;18644;48.700;9.210;2023-09-19T08:45:34;22.20;60.60
32139;DHT22;18644;48.700;9.210;2023-09-19T08:48:06;22.20;60.30
32139;DHT22;18644;48.700;9.210;2023-09-19T08:50:47;22.20;60.20
32139;DHT22;18644;48.700;9.210;2023-09-19T08:53:19;22.20;60.00
32139;DHT22;18644;48.700;9.210;2023-09-19T08:55:49;22.20;60.00
32139;DHT22;18644;48.700;9.210;2023-09-19T08:58:19;22.20;60.00
32139;DHT22;18644;48.700;9.210;2023-09-19T09:00:47;22.20;59.90
32139;DHT22;18644;48.700;9.210;2023-09-19T09:03:15;22.20;59.80
32139;DHT22;18644;48.700;9.210;2023-09-19T09:05:46;22.20;59.80
32139;DHT22;18644;48.700;9.210;2023-09-19T09:08:16;22.10;59.70
32139;DHT22;18644;48.700;9.210;2023-09-19T09:10:45;22.20;59.80
32139;DHT22;18644;48.700;9.210;2023-09-19T09:13:12;22.10;59.90
32139;DHT22;18644;48.700;9.210;2023-09-19T09:15:39;22.20;60.20
32139;DHT22;18644;48.700;9.210;2023-09-19T09:18:07;22.30;60.20
32139;DHT22;18644;48.700;9.210;2023-09-19T09:20:34;22.30;60.00
32139;DHT22;18644;48.700;9.210;2023-09-19T09:23:01;22.40;59.90
32139;DHT22;18644;48.700;9.210;2023-09-19T09:25:50;22.50;59.60
32139;DHT22;18644;48.700;9.210;2023-09-19T09:28:20;22.50;59.40
32139;DHT22;18644;48.700;9.210;2023-09-19T09:30:48;22.60;59.20
32139;DHT22;18644;48.700;9.210;2023-09-19T09:33:15;22.50;59.50
32139;DHT22;18644;48.700;9.210;2023-09-19T09:35:49;22.50;58.80
32139;DHT22;18644;48.700;9.210;2023-09-19T09:38:18;22.60;58.70
32139;DHT22;18644;48.700;9.210;2023-09-19T09:40:46;22.60;58.60
32139;DHT22;18644;48.700;9.210;2023-09-19T09:43:32;22.50;58.40
32139;DHT22;18644;48.700;9.210;2023-09-19T09:46:07;22.50;58.30
32139;DHT22;18644;48.700;9.210;2023-09-19T09:49:10;22.50;58.00
32139;DHT22;18644;48.700;9.210;2023-09-19T09:51:45;22.60;57.90
32139;DHT22;18644;48.700;9.210;2023-09-19T09:54:22;22.50;57.50
32139;DHT22;18644;48.700;9.210;2023-09-19T09:56:53;22.40;57.40
32139;DHT22;18644;48.700;9.210;2023-09-19T10:02:16;22.40;57.40
32139;DHT22;18644;48.700;9.210;2023-09-19T10:04:49;22.30;57.30
32139;DHT22;18644;48.700;9.210;2023-09-19T10:07:35;22.30;57.30
32139;DHT22;18644;48.700;9.210;2023-09-19T10:10:04;22.40;57.40
32139;DHT22;18644;48.700;9.210;2023-09-19T10:12:42;22.40;57.60
32139;DHT22;18644;48.700;9.210;2023-09-19T10:15:14;22.50;57.70
32139;DHT22;18644;48.700;9.210;2023-09-19T10:17:42;22.60;57.60
32139;DHT22;18644;48.700;9.210;2023-09-19T10:20:14;22.60;57.40
32139;DHT22;18644;48.700;9.210;2023-09-19T10:23:01;22.70;57.20
32139;DHT22;18644;48.700;9.210;2023-09-19T10:25:35;22.70;56.90
32139;DHT22;18644;48.700;9.210;2023-09-19T10:28:03;22.80;57.30
32139;DHT22;18644;48.700;9.210;2023-09-19T10:30:42;22.90;57.40
32139;DHT22;18644;48.700;9.210;2023-09-19T10:33:10;23.00;57.40
32139;DHT22;18644;48.700;9.210;2023-09-19T10:35:38;23.20;57.40
32139;DHT22;18644;48.700;9.210;2023-09-19T10:38:07;23.30;57.60
32139;DHT22;18644;48.700;9.210;2023-09-19T10:40:34;23.50;57.40
32139;DHT22;18644;48.700;9.210;2023-09-19T10:43:02;23.60;57.30
32139;DHT22;18644;48.700;9.210;2023-09-19T10:45:31;23.80;57.20
32139;DHT22;18644;48.700;9.210;2023-09-19T10:48:00;23.90;56.90
32139;DHT22;18644;48.700;9.210;2023-09-19T10:50:30;24.10;55.90
32139;DHT22;18644;48.700;9.210;2023-09-19T10:52:59;24.10;56.10
32139;DHT22;18644;48.700;9.210;2023-09-19T10:55:30;24.10;55.60
32139;DHT22;18644;48.700;9.210;2023-09-19T10:57:58;24.20;55.50
32139;DHT22;18644;48.700;9.210;2023-09-19T11:00:52;24.20;55.70
32139;DHT22;18644;48.700;9.210;2023-09-19T11:03:22;24.20;55.60
32139;DHT22;18644;48.700;9.210;2023-09-19T11:06:05;24.30;55.30
32139;DHT22;18644;48.700;9.210;2023-09-19T11:08:57;24.30;55.40
32139;DHT22;18644;48.700;9.210;2023-09-19T11:11:47;24.40;55.40
32139;DHT22;18644;48.700;9.210;2023-09-19T11:20:21;24.60;55.20
32139;DHT22;18644;48.700;9.210;2023-09-19T11:23:18;24.70;54.60
32139;DHT22;18644;48.700;9.210;2023-09-19T11:25:48;24.80;54.60
32139;DHT22;18644;48.700;9.210;2023-09-19T11:28:32;24.80;54.40
32139;DHT22;18644;48.700;9.210;2023-09-19T11:34:40;24.90;54.20
32139;DHT22;18644;48.700;9.210;2023-09-19T11:40:34;25.00;54.10
32139;DHT22;18644;48.700;9.210;2023-09-19T11:46:05;25.00;54.00
32139;DHT22;18644;48.700;9.210;2023-09-19T11:48:35;25.10;53.90
32139;DHT22;18644;48.700;9.210;2023-09-19T11:51:09;25.10;53.50
32139;DHT22;18644;48.700;9.210;2023-09-19T11:53:44;25.10;53.10
32139;DHT22;18644;48.700;9.210;2023-09-19T11:56:14;25.10;52.80
32139;DHT22;18644;48.700;9.210;2023-09-19T11:58:43;25.00;53.10
32139;DHT22;18644;48.700;9.210;2023-09-19T12:01:11;25.10;53.50
32139;DHT22;18644;48.700;9.210;2023-09-19T12:03:46;25.20;53.60
32139;DHT22;18644;48.700;9.210;2023-09-19T12:06:15;25.20;53.10
32139;DHT22;18644;48.700;9.210;2023-09-19T12:08:42;25.30;52.90
32139;DHT22;18644;48.700;9.210;2023-09-19T12:11:12;25.30;52.90
32139;DHT22;18644;48.700;9.210;2023-09-19T12:13:45;25.30;52.80
32139;DHT22;18644;48.700;9.210;2023-09-19T12:16:14;25.30;52.70
32139;DHT22;18644;48.700;9.210;2023-09-19T12:18:42;25.30;52.70
32139;DHT22;18644;48.700;9.210;2023-09-19T12:21:21;25.30;52.70
32139;DHT22;18644;48.700;9.210;2023-09-19T12:23:56;25.30;52.80
32139;DHT22;18644;48.700;9.210;2023-09-19T12:26:27;25.40;52.90
32139;DHT22;18644;48.700;9.210;2023-09-19T12:28:54;25.50;52.80
32139;DHT22;18644;48.700;9.210;2023-09-19T12:31:22;25.60;52.80
32139;DHT22;18644;48.700;9.210;2023-09-19T12:33:54;25.60;52.60
32139;DHT22;18644;48.700;9.210;2023-09-19T12:36:21;25.70;52.70
32139;DHT22;18644;48.700;9.210;2023-09-19T12:38:54;25.80;52.90
32139;DHT22;18644;48.700;9.210;2023-09-19T12:41:21;26.00;53.30
32139;DHT22;18644;48.700;9.210;2023-09-19T12:43:49;26.10;53.30
32139;DHT22;18644;48.700;9.210;2023-09-19T12:46:19;26.30;53.30
32139;DHT22;18644;48.700;9.210;2023-09-19T12:51:42;26.50;53.10
32139;DHT22;18644;48.700;9.210;2023-09-19T12:54:10;26.70;52.70
32139;DHT22;18644;48.700;9.210;2023-09-19T12:56:40;26.70;52.20
32139;DHT22;18644;48.700;9.210;2023-09-19T12:59:11;26.80;52.00
32139;DHT22;18644;48.700;9.210;2023-09-19T13:01:39;26.90;52.00
32139;DHT22;18644;48.700;9.210;2023-09-19T13:04:10;26.90;51.90
32139;DHT22;18644;48.700;9.210;2023-09-19T13:06:43;27.00;51.90
32139;DHT22;18644;48.700;9.210;2023-09-19T13:09:11;27.00;52.10
32139;DHT22;18644;48.700;9.210;2023-09-19T13:11:40;27.10;52.00
32139;DHT22;18644;48.700;9.210;2023-09-19T13:14:20;27.20;52.00
32139;DHT22;18644;48.700;9.210;2023-09-19T13:16:55;27.20;52.20
32139;DHT22;18644;48.700;9.210;2023-09-19T13:19:39;27.30;51.70
32139;DHT22;18644;48.700;9.210;2023-09-19T13:25:05;27.40;51.30
32139;DHT22;18644;48.700;9.210;2023-09-19T13:27:33;27.40;51.30
32139;DHT22;18644;48.700;9.210;2023-09-19T13:30:01;27.40;51.00
32139;DHT22;18644;48.700;9.210;2023-09-19T13:32:31;27.50;51.10
32139;DHT22;18644;48.700;9.210;2023-09-19T13:34:58;27.50;50.80
32139;DHT22;18644;48.700;9.210;2023-09-19T13:37:25;27.40;51.00
32139;DHT22;18644;48.700;9.210;2023-09-19T13:39:52;27.50;50.60
32139;DHT22;18644;48.700;9.210;2023-09-19T13:42:19;27.40;50.30
32139;DHT22;18644;48.700;9.210;2023-09-19T13:44:47;27.50;50.10
32139;DHT22;18644;48.700;9.210;2023-09-19T13:47:15;27.40;50.00
32139;DHT22;18644;48.700;9.210;2023-09-19T13:49:42;27.50;49.90
32139;DHT22;18644;48.700;9.210;2023-09-19T13:52:09;27.50;49.60
32139;DHT22;18644;48.700;9.210;2023-09-19T13:54:38;27.40;49.40
32139;DHT22;18644;48.700;9.210;2023-09-19T13:57:05;27.40;48.90
32139;DHT22;18644;48.700;9.210;2023-09-19T13:59:32;27.40;49.10
32139;DHT22;18644;48.700;9.210;2023-09-19T14:01:59;27.40;49.20
32139;DHT22;18644;48.700;9.210;2023-09-19T14:04:27;27.50;49.30
32139;DHT22;18644;48.700;9.210;2023-09-19T14:06:54;27.50;49.60
32139;DHT22;18644;48.700;9.210;2023-09-19T14:09:22;27.60;49.80
32139;DHT22;18644;48.700;9.210;2023-09-19T14:11:50;27.60;49.30
32139;DHT22;18644;48.700;9.210;2023-09-19T14:14:17;27.70;49.30
32139;DHT22;18644;48.700;9.210;2023-09-19T14:16:45;27.70;49.10
32139;DHT22;18644;48.700;9.210;2023-09-19T14:19:12;27.70;48.50
32139;DHT22;18644;48.700;9.210;2023-09-19T14:21:42;27.70;48.60
32139;DHT22;18644;48.700;9.210;2023-09-19T14:24:09;27.70;48.60
32139;DHT22;18644;48.700;9.210;2023-09-19T14:26:37;27.70;48.80
32139;DHT22;18644;48.700;9.210;2023-09-19T14:29:03;27.80;48.70
32139;DHT22;18644;48.700;9.210;2023-09-19T14:31:32;27.90;48.50
32139;DHT22;18644;48.700;9.210;2023-09-19T14:34:00;27.90;48.10
32139;DHT22;18644;48.700;9.210;2023-09-19T14:36:27;27.90;48.50
32139;DHT22;18644;48.700;9.210;2023-09-19T14:38:56;28.00;48.40
32139;DHT22;18644;48.700;9.210;2023-09-19T14:41:23;27.90;48.30
32139;DHT22;18644;48.700;9.210;2023-09-19T14:43:51;28.00;48.50
32139;DHT22;18644;48.700;9.210;2023-09-19T14:46:17;28.00;48.30
32139;DHT22;18644;48.700;9.210;2023-09-19T14:48:44;28.00;48.60
32139;DHT22;18644;48.700;9.210;2023-09-19T14:51:12;28.10;47.70
32139;DHT22;18644;48.700;9.210;2023-09-19T14:53:40;28.10;47.80
32139;DHT22;18644;48.700;9.210;2023-09-19T14:56:08;28.10;47.80
32139;DHT22;18644;48.700;9.210;2023-09-19T14:58:36;28.10;47.90
32139;DHT22;18644;48.700;9.210;2023-09-19T15:01:04;28.20;48.00
32139;DHT22;18644;48.700;9.210;2023-09-19T15:03:32;28.20;48.20
32139;DHT22;18644;48.700;9.210;2023-09-19T15:05:59;28.20;47.60
32139;DHT22;18644;48.700;9.210;2023-09-19T15:08:27;28.20;47.50
32139;DHT22;18644;48.700;9.210;2023-09-19T15:10:55;28.30;47.60
32139;DHT22;18644;48.700;9.210;2023-09-19T15:13:25;28.30;47.40
32139;DHT22;18644;48.700;9.210;2023-09-19T15:15:57;28.30;47.40
32139;DHT22;18644;48.700;9.210;2023-09-19T15:18:25;28.30;47.00
32139;DHT22;18644;48.700;9.210;2023-09-19T15:20:52;28.30;47.00
32139;DHT22;18644;48.700;9.210;2023-09-19T15:23:19;28.30;46.90
32139;DHT22;18644;48.700;9.210;2023-09-19T15:25:47;28.20;46.80
32139;DHT22;18644;48.700;9.210;2023-09-19T15:28:14;28.20;46.90
32139;DHT22;18644;48.700;9.210;2023-09-19T15:30:42;28.20;46.60
32139;DHT22;18644;48.700;9.210;2023-09-19T15:33:09;28.20;46.60
32139;DHT22;18644;48.700;9.210;2023-09-19T15:35:36;28.20;46.40
32139;DHT22;18644;48.700;9.210;2023-09-19T15:38:03;28.10;46.30
32139;DHT22;18644;48.700;9.210;2023-09-19T15:40:30;28.10;45.90
32139;DHT22;18644;48.700;9.210;2023-09-19T15:42:57;28.00;45.80
32139;DHT22;18644;48.700;9.210;2023-09-19T15:45:24;27.90;46.10
32139;DHT22;18644;48.700;9.210;2023-09-19T15:47:53;27.90;45.80
32139;DHT22;18644;48.700;9.210;2023-09-19T15:50:19;27.90;46.00
32139;DHT22;18644;48.700;9.210;2023-09-19T15:52:46;27.80;45.70
32139;DHT22;18644;48.700;9.210;2023-09-19T15:55:19;27.80;46.10
32139;DHT22;18644;48.700;9.210;2023-09-19T15:57:46;27.80;45.90
32139;DHT22;18644;48.700;9.210;2023-09-19T16:00:13;27.80;45.90
32139;DHT22;18644;48.700;9.210;2023-09-19T16:02:42;27.70;45.90
32139;DHT22;18644;48.700;9.210;2023-09-19T16:05:10;27.70;46.00
32139;DHT22;18644;48.700;9.210;2023-09-19T16:07:37;27.70;46.10
32139;DHT22;18644;48.700;9.210;2023-09-19T16:10:05;27.80;46.10
32139;DHT22;18644;48.700;9.210;2023-09-19T16:12:33;27.80;46.10